Time;durP1;ratioP1;P1;durP2;ratioP2;P2;SDS_P1;SDS_P2;PMS_P1;PMS_P2;Temp;Humidity;BMP_temperature;BMP_pressure;BME280_temperature;BME280_humidity;BME280_pressure;Samples;Min_cycle;Max_cycle;Signal;HPM_P1;HPM_P2
2021/02/27 00:02:41;;;;;;;0.70;0.70;;;;;;;3.90;80.91;98529.78;299395;238;63009;-55
2021/02/27 00:07:43;;;;;;;0.70;0.70;;;;;;;3.90;80.71;98529.78;299395;197;63005;-55
2021/02/27 00:12:44;;;;;;;0.70;0.70;;;;;;;3.87;81.12;98543.63;299395;248;63020;-54
2021/02/27 00:17:52;;;;;;;0.70;0.70;;;;;;;4.02;80.70;98536.16;299395;267;63005;-55
2021/02/27 00:22:53;;;;;;;0.70;0.70;;;;;;;4.15;79.96;98542.53;299395;214;63017;-54
2021/02/27 00:27:55;;;;;;;6.53;6.22;;;;;;;4.21;79.83;98541.69;299395;197;63008;-53
2021/02/27 00:32:56;;;;;;;0.70;0.70;;;;;;;4.06;80.62;98541.94;299395;199;63009;-55
2021/02/27 00:37:57;;;;;;;0.70;0.70;;;;;;;4.17;80.23;98543.97;299395;249;63005;-55
2021/02/27 00:43:06;;;;;;;0.70;0.70;;;;;;;4.34;78.67;98541.62;299395;196;63008;-56
2021/02/27 00:48:08;;;;;;;0.70;0.70;;;;;;;4.12;79.88;98540.28;299395;198;63004;-55
2021/02/27 00:53:09;;;;;;;0.70;0.70;;;;;;;4.06;80.10;98541.12;299395;198;63009;-55
2021/02/27 00:58:10;;;;;;;0.70;0.70;;;;;;;4.03;80.26;98543.19;299395;240;63004;-55
2021/02/27 01:03:14;;;;;;;0.70;0.70;;;;;;;4.01;80.62;98547.94;299395;227;63009;-55
2021/02/27 01:08:15;;;;;;;0.70;0.70;;;;;;;3.94;80.74;98541.75;299417;217;63005;-55
2021/02/27 01:13:16;;;;;;;0.70;0.70;;;;;;;3.82;81.10;98553.34;299395;248;63008;-55
2021/02/27 01:18:17;;;;;;;0.70;0.70;;;;;;;3.68;81.58;98549.88;299395;209;63004;-55
2021/02/27 01:23:18;;;;;;;0.80;0.80;;;;;;;3.47;81.68;98553.56;299395;202;63009;-55
2021/02/27 01:28:19;;;;;;;0.80;0.80;;;;;;;3.36;81.94;98549.69;299395;236;63019;-54
2021/02/27 01:33:20;;;;;;;0.70;0.70;;;;;;;3.06;82.61;98543.06;299395;203;63021;-56
2021/02/27 01:38:21;;;;;;;0.70;0.70;;;;;;;2.91;82.78;98545.09;299395;224;63000;-54
2021/02/27 01:43:22;;;;;;;0.80;0.80;;;;;;;2.85;83.17;98556.62;299395;211;63008;-55
2021/02/27 01:48:23;;;;;;;0.70;0.70;;;;;;;2.81;83.23;98550.00;299395;242;63019;-55
2021/02/27 01:53:25;;;;;;;0.70;0.70;;;;;;;2.77;83.31;98548.78;299395;232;63009;-54
2021/02/27 01:58:26;;;;;;;0.70;0.70;;;;;;;2.67;83.58;98552.69;299395;203;63005;-54
2021/02/27 02:03:28;;;;;;;0.70;0.70;;;;;;;2.47;83.74;98554.44;299395;283;63009;-54
2021/02/27 02:08:29;;;;;;;0.70;0.70;;;;;;;2.47;83.88;98557.12;299395;202;63005;-54
2021/02/27 02:13:30;;;;;;;0.70;0.70;;;;;;;2.50;83.72;98554.03;299395;324;63009;-55
2021/02/27 02:18:32;;;;;;;0.70;0.70;;;;;;;2.32;84.13;98546.56;299395;207;63004;-54
2021/02/27 02:23:33;;;;;;;0.70;0.70;;;;;;;2.18;84.75;98557.41;299395;199;63009;-54
2021/02/27 02:28:35;;;;;;;0.70;0.70;;;;;;;2.14;84.95;98548.13;299395;207;63004;-54
2021/02/27 02:33:35;;;;;;;0.80;0.80;;;;;;;2.16;84.89;98546.91;299395;222;63009;-54
2021/02/27 02:38:37;;;;;;;0.70;0.70;;;;;;;2.35;84.43;98542.66;299395;242;63005;-54
2021/02/27 02:43:38;;;;;;;0.70;0.70;;;;;;;2.05;84.60;98546.66;299395;299;63008;-54
2021/02/27 02:48:39;;;;;;;0.80;0.80;;;;;;;2.17;84.52;98545.06;299395;227;63004;-53
2021/02/27 02:53:40;;;;;;;0.70;0.70;;;;;;;2.05;84.31;98552.84;299395;287;63009;-54
2021/02/27 02:58:41;;;;;;;0.80;0.80;;;;;;;1.76;85.35;98556.56;299394;258;64005;-55
2021/02/27 03:03:42;;;;;;;0.70;0.70;;;;;;;1.86;85.27;98562.41;299395;199;63009;-55
2021/02/27 03:08:43;;;;;;;0.80;0.80;;;;;;;1.84;85.07;98559.09;299395;208;63005;-55
2021/02/27 03:13:44;;;;;;;0.70;0.70;;;;;;;1.74;85.42;98558.59;299395;208;63009;-54
2021/02/27 03:18:45;;;;;;;0.70;0.70;;;;;;;1.89;85.55;98555.81;299395;198;63014;-55
2021/02/27 03:23:46;;;;;;;0.70;0.70;;;;;;;1.98;85.26;98560.00;299395;211;63009;-53
2021/02/27 03:28:47;;;;;;;0.70;0.70;;;;;;;2.12;84.53;98561.72;299395;269;63010;-55
2021/02/27 03:33:48;;;;;;;0.70;0.70;;;;;;;2.14;84.66;98564.19;299395;231;63009;-55
2021/02/27 03:38:49;;;;;;;0.70;0.70;;;;;;;2.25;83.97;98571.66;299395;219;63005;-54
2021/02/27 03:43:50;;;;;;;0.70;0.70;;;;;;;2.23;84.35;98563.00;299395;219;63009;-55
2021/02/27 03:48:51;;;;;;;0.70;0.70;;;;;;;2.32;83.96;98569.84;299395;303;63004;-55
2021/02/27 03:53:53;;;;;;;0.70;0.70;;;;;;;2.29;83.97;98556.84;299395;247;63009;-54
2021/02/27 03:58:54;;;;;;;0.70;0.70;;;;;;;2.34;83.61;98571.31;299395;203;63005;-55
2021/02/27 04:03:55;;;;;;;2.47;2.37;;;;;;;2.24;84.09;98570.03;299395;209;63009;-54
2021/02/27 04:08:55;;;;;;;0.95;0.95;;;;;;;2.22;83.84;98572.91;299395;300;63005;-55
2021/02/27 04:14:01;;;;;;;1.23;1.20;;;;;;;2.24;83.62;98575.37;299395;237;63009;-54
2021/02/27 04:19:01;;;;;;;0.73;0.73;;;;;;;2.20;83.83;98579.47;299417;215;63004;-55
2021/02/27 04:24:04;;;;;;;0.70;0.70;;;;;;;2.20;83.38;98584.81;299395;196;63009;-53
2021/02/27 04:29:05;;;;;;;0.70;0.70;;;;;;;2.17;83.69;98601.28;299395;202;63005;-54
2021/02/27 04:34:07;;;;;;;0.70;0.70;;;;;;;2.20;83.48;98609.75;299395;231;63009;-54
2021/02/27 04:39:07;;;;;;;0.70;0.70;;;;;;;2.12;83.80;98612.59;299395;212;63004;-55
2021/02/27 04:44:08;;;;;;;0.80;0.80;;;;;;;2.12;84.21;98611.75;299395;197;63009;-55
2021/02/27 04:49:09;;;;;;;0.75;0.75;;;;;;;2.05;84.23;98618.94;299395;202;63004;-55
2021/02/27 04:54:10;;;;;;;0.80;0.80;;;;;;;2.05;84.85;98608.25;299395;335;63009;-55
2021/02/27 04:59:11;;;;;;;0.80;0.80;;;;;;;2.02;85.12;98614.81;299395;208;63005;-55
2021/02/27 05:04:12;;;;;;;0.80;0.80;;;;;;;2.14;85.54;98623.09;299395;225;63008;-55
2021/02/27 05:09:13;;;;;;;0.70;0.70;;;;;;;2.19;85.37;98620.66;299395;218;63004;-55
2021/02/27 05:14:15;;;;;;;0.70;0.70;;;;;;;2.28;85.27;98608.78;299395;250;63009;-54
2021/02/27 05:19:16;;;;;;;0.80;0.80;;;;;;;2.35;84.98;98612.31;299395;297;63004;-54
2021/02/27 05:24:17;;;;;;;0.80;0.80;;;;;;;2.43;85.22;98620.16;299395;206;63009;-55
2021/02/27 05:29:18;;;;;;;0.80;0.80;;;;;;;2.47;84.61;98618.75;299395;278;63005;-54
2021/02/27 05:34:20;;;;;;;0.80;0.80;;;;;;;2.49;85.00;98614.03;299395;210;63008;-54
2021/02/27 05:39:21;;;;;;;0.80;0.80;;;;;;;2.44;85.08;98619.16;299395;290;63004;-54
2021/02/27 05:44:29;;;;;;;0.80;0.80;;;;;;;2.54;85.16;98622.28;299395;210;63009;-54
2021/02/27 05:49:31;;;;;;;0.80;0.80;;;;;;;2.54;84.97;98626.81;299395;204;63005;-54
2021/02/27 05:54:35;;;;;;;0.70;0.70;;;;;;;2.62;84.93;98632.03;299395;213;63009;-54
2021/02/27 05:59:36;;;;;;;0.73;0.73;;;;;;;2.62;84.72;98627.50;299395;203;63005;-54
2021/02/27 06:04:41;;;;;;;0.80;0.80;;;;;;;2.63;84.93;98634.50;299395;344;63009;-54
2021/02/27 06:09:44;;;;;;;0.80;0.80;;;;;;;2.64;84.48;98629.97;299395;236;63004;-53
2021/02/27 06:14:45;;;;;;;0.80;0.80;;;;;;;2.63;84.52;98639.88;299395;202;63009;-54
2021/02/27 06:19:57;;;;;;;0.70;0.70;;;;;;;2.69;84.18;98643.59;299395;218;63013;-54
2021/02/27 06:24:58;;;;;;;0.70;0.70;;;;;;;2.66;84.46;98644.81;299395;218;63009;-54
2021/02/27 06:30:14;;;;;;;0.70;0.70;;;;;;;2.75;84.37;98658.06;299395;356;63000;-54
2021/02/27 06:35:15;;;;;;;0.70;0.70;;;;;;;2.67;84.44;98653.69;299395;334;63009;-54
2021/02/27 06:40:16;;;;;;;0.73;0.73;;;;;;;2.67;84.48;98667.91;299395;203;63004;-54
2021/02/27 06:45:20;;;;;;;0.70;0.70;;;;;;;2.83;84.66;98666.75;299395;203;63009;-54
2021/02/27 06:50:27;;;;;;;0.77;0.77;;;;;;;2.76;84.27;98660.53;299417;341;63019;-55
2021/02/27 06:55:45;;;;;;;0.80;0.80;;;;;;;2.76;84.14;98670.44;299395;207;63008;-53
2021/02/27 07:00:49;;;;;;;0.70;0.70;;;;;;;2.86;84.08;98676.22;299395;230;63004;-54
2021/02/27 07:05:50;;;;;;;0.80;0.80;;;;;;;2.89;84.29;98682.03;299395;205;63009;-54
2021/02/27 07:10:53;;;;;;;4.85;2.08;;;;;;;2.85;83.41;98677.25;299395;197;63004;-54
2021/02/27 07:15:54;;;;;;;0.70;0.70;;;;;;;2.91;83.89;98679.16;299395;218;63009;-54
2021/02/27 07:20:56;;;;;;;0.70;0.70;;;;;;;2.98;83.57;98677.31;299395;284;63015;-52
2021/02/27 07:26:17;;;;;;;0.70;0.70;;;;;;;3.11;83.33;98682.75;299395;220;63020;-54
2021/02/27 07:31:53;;;;;;;0.80;0.80;;;;;;;3.10;83.05;98683.78;299395;196;63004;-54
2021/02/27 07:37:14;;;;;;;0.70;0.70;;;;;;;3.21;82.38;98693.91;299417;214;63009;-55
2021/02/27 07:42:35;;;;;;;0.80;0.80;;;;;;;3.25;82.35;98703.19;299395;227;63005;-54
2021/02/27 07:47:41;;;;;;;0.70;0.70;;;;;;;3.36;82.02;98709.84;299395;203;63008;-54
2021/02/27 07:53:00;;;;;;;0.70;0.70;;;;;;;3.64;80.23;98707.84;299395;227;63004;-54
2021/02/27 07:58:06;;;;;;;0.70;0.70;;;;;;;3.77;80.22;98706.22;299395;238;63009;-56
2021/02/27 08:03:10;;;;;;;0.70;0.70;;;;;;;3.82;80.41;98717.97;299395;219;63004;-54
2021/02/27 08:08:14;;;;;;;0.70;0.70;;;;;;;4.24;78.32;98708.66;299395;211;63009;-54
2021/02/27 08:13:33;;;;;;;0.70;0.70;;;;;;;4.11;79.52;98707.88;299395;247;63005;-54
2021/02/27 08:18:34;;;;;;;0.70;0.70;;;;;;;3.93;78.80;98722.72;299395;238;63009;-55
2021/02/27 08:23:36;;;;;;;0.70;0.70;;;;;;;3.94;78.53;98729.75;299395;234;63012;-54
2021/02/27 08:28:45;;;;;;;0.70;0.70;;;;;;;4.75;75.80;98723.28;299395;214;63009;-54
2021/02/27 08:33:58;;;;;;;0.70;0.70;;;;;;;5.24;72.69;98714.59;299395;240;63005;-54
2021/02/27 08:39:27;;;;;;;0.70;0.70;;;;;;;5.42;71.25;98722.81;299395;232;63009;-52
2021/02/27 08:44:30;;;;;;;0.70;0.70;;;;;;;5.84;70.05;98724.00;299395;212;63005;-53
2021/02/27 08:49:33;;;;;;;0.70;0.70;;;;;;;6.06;67.72;98724.50;299395;236;63009;-53
2021/02/27 08:54:36;;;;;;;0.70;0.70;;;;;;;5.89;67.71;98718.78;299395;226;63004;-58
2021/02/27 08:59:37;;;;;;;0.70;0.70;;;;;;;5.75;69.12;98733.38;299395;212;63009;-53
2021/02/27 09:04:42;;;;;;;0.70;0.70;;;;;;;5.53;69.63;98729.38;299395;204;63005;-54
2021/02/27 09:09:43;;;;;;;0.70;0.70;;;;;;;5.59;69.35;98744.66;299395;206;63008;-53
2021/02/27 09:14:46;;;;;;;2.28;2.12;;;;;;;5.84;68.50;98732.09;299395;205;63004;-54
2021/02/27 09:20:00;;;;;;;0.62;0.62;;;;;;;5.92;66.30;98733.72;299395;203;63009;-54
2021/02/27 09:25:03;;;;;;;0.70;0.70;;;;;;;5.72;68.54;98737.34;299396;228;63004;-55
2021/02/27 09:30:17;;;;;;;0.70;0.70;;;;;;;6.02;66.25;98728.66;299418;244;63009;-56
2021/02/27 09:35:20;;;;;;;0.70;0.70;;;;;;;5.71;68.58;98742.94;299396;224;63005;-54
2021/02/27 09:40:28;;;;;;;0.80;0.80;;;;;;;5.86;67.05;98735.41;299396;222;63008;-54
2021/02/27 09:45:31;;;;;;;0.70;0.70;;;;;;;5.79;66.68;98737.31;299396;202;63004;-55
2021/02/27 09:50:39;;;;;;;0.70;0.70;;;;;;;5.45;67.75;98743.91;299396;203;63009;-54
2021/02/27 09:55:51;;;;;;;0.70;0.70;;;;;;;5.45;67.02;98743.09;299396;279;63004;-54
2021/02/27 10:01:12;;;;;;;0.70;0.70;;;;;;;5.77;66.01;98736.69;299396;250;63009;-54
2021/02/27 10:06:16;;;;;;;0.70;0.70;;;;;;;5.69;66.70;98743.16;299397;208;63005;-57
2021/02/27 10:11:17;;;;;;;0.70;0.70;;;;;;;5.77;65.69;98752.84;299419;197;63009;-56
2021/02/27 10:16:18;;;;;;;0.80;0.80;;;;;;;5.97;64.91;98740.09;299397;203;63004;-55
2021/02/27 10:21:18;;;;;;;0.70;0.70;;;;;;;5.93;65.75;98738.88;299396;222;63009;-52
2021/02/27 10:26:20;;;;;;;0.70;0.70;;;;;;;6.07;63.14;98730.72;299396;208;63005;-53
2021/02/27 10:31:22;;;;;;;0.70;0.70;;;;;;;6.65;61.24;98717.72;299396;256;63009;-54
2021/02/27 10:36:23;;;;;;;0.70;0.70;;;;;;;6.89;56.03;98713.34;299396;275;63005;-54
2021/02/27 10:41:23;;;;;;;0.60;0.60;;;;;;;6.97;55.81;98713.03;299396;197;63009;-53
2021/02/27 10:46:24;;;;;;;0.60;0.60;;;;;;;6.83;56.28;98709.66;299396;277;63004;-54
2021/02/27 10:51:26;;;;;;;0.62;0.62;;;;;;;6.85;54.54;98717.53;299396;290;63009;-58
2021/02/27 10:56:27;;;;;;;0.70;0.70;;;;;;;6.58;53.92;98712.44;299395;268;64005;-53
2021/02/27 11:01:28;;;;;;;0.70;0.70;;;;;;;6.26;55.51;98724.31;299397;284;63008;-54
2021/02/27 11:06:30;;;;;;;0.65;0.65;;;;;;;6.37;55.62;98718.22;299397;224;63004;-54
2021/02/27 11:11:32;;;;;;;0.60;0.60;;;;;;;6.58;53.43;98704.34;299395;354;63009;-54
2021/02/27 11:16:32;;;;;;;0.60;0.60;;;;;;;6.79;52.82;98707.63;299395;248;63004;-54
2021/02/27 11:21:33;;;;;;;0.60;0.60;;;;;;;6.93;50.41;98687.56;299395;274;63009;-54
2021/02/27 11:26:34;;;;;;;0.70;0.70;;;;;;;7.10;50.17;98687.75;299395;238;63005;-52
2021/02/27 11:31:35;;;;;;;0.60;0.60;;;;;;;7.10;48.79;98685.06;299395;363;63008;-55
2021/02/27 11:36:39;;;;;;;0.60;0.60;;;;;;;6.70;48.60;98672.84;299395;202;63004;-53
2021/02/27 11:41:40;;;;;;;0.70;0.70;;;;;;;7.05;49.38;98680.34;299395;197;63009;-54
2021/02/27 11:46:41;;;;;;;0.80;0.80;;;;;;;7.07;47.80;98673.66;299395;307;63004;-54
2021/02/27 11:51:42;;;;;;;0.62;0.62;;;;;;;6.94;48.92;98670.28;299395;260;63009;-53
2021/02/27 11:56:44;;;;;;;0.60;0.60;;;;;;;7.15;50.39;98669.84;299395;319;63005;-53
2021/02/27 12:01:45;;;;;;;0.60;0.60;;;;;;;7.40;48.32;98656.19;299395;285;63008;-55
2021/02/27 12:06:46;;;;;;;0.60;0.60;;;;;;;7.48;48.18;98663.16;299395;218;63019;-60
2021/02/27 12:11:47;;;;;;;0.60;0.60;;;;;;;7.50;48.31;98663.75;299395;227;63009;-58
2021/02/27 12:16:48;;;;;;;0.70;0.70;;;;;;;7.74;46.14;98657.34;299395;220;63005;-59
2021/02/27 12:21:49;;;;;;;0.60;0.60;;;;;;;7.44;47.84;98653.88;299395;345;63009;-55
2021/02/27 12:26:50;;;;;;;0.60;0.60;;;;;;;7.18;48.29;98661.28;299395;266;63005;-57
2021/02/27 12:31:51;;;;;;;0.70;0.70;;;;;;;7.37;48.41;98652.06;299395;203;63009;-59
2021/02/27 12:36:52;;;;;;;0.60;0.60;;;;;;;7.43;47.16;98649.50;299395;219;63004;-54
2021/02/27 12:41:53;;;;;;;0.60;0.60;;;;;;;7.45;46.35;98647.41;299395;344;63009;-55
2021/02/27 12:46:55;;;;;;;0.60;0.60;;;;;;;7.74;45.95;98641.12;299395;265;63010;-55
2021/02/27 12:51:56;;;;;;;0.60;0.60;;;;;;;7.61;47.34;98639.50;299395;216;63009;-54
2021/02/27 12:56:56;;;;;;;0.60;0.60;;;;;;;8.00;46.66;98631.78;299395;227;63005;-55
2021/02/27 13:01:59;;;;;;;0.60;0.60;;;;;;;7.98;45.70;98626.59;299395;225;63026;-59
2021/02/27 13:07:00;;;;;;;0.60;0.60;;;;;;;7.87;46.73;98632.84;299395;337;63004;-59
2021/02/27 13:12:02;;;;;;;0.80;0.80;;;;;;;7.89;46.26;98619.91;299395;263;63009;-60
2021/02/27 13:17:05;;;;;;;0.60;0.60;;;;;;;7.79;46.53;98624.25;299395;255;63005;-62
2021/02/27 13:22:06;;;;;;;0.60;0.60;;;;;;;7.58;47.38;98614.81;299395;212;63009;-58
2021/02/27 13:27:07;;;;;;;0.60;0.60;;;;;;;7.79;47.63;98621.53;299395;292;63005;-59
2021/02/27 13:32:07;;;;;;;0.60;0.60;;;;;;;8.18;45.75;98609.22;299395;228;63009;-59
2021/02/27 13:37:09;;;;;;;1.50;1.50;;;;;;;8.06;46.74;98612.75;299394;319;64004;-60
2021/02/27 13:42:09;;;;;;;0.60;0.60;;;;;;;8.09;46.52;98600.63;299395;324;63009;-61
2021/02/27 13:47:13;;;;;;;0.60;0.60;;;;;;;8.03;46.71;98602.41;299395;277;63005;-61
2021/02/27 13:52:16;;;;;;;0.60;0.60;;;;;;;8.08;47.21;98604.41;299417;218;63009;-60
2021/02/27 13:57:17;;;;;;;0.60;0.60;;;;;;;8.01;46.85;98598.28;299395;213;63005;-53
2021/02/27 14:02:20;;;;;;;0.60;0.60;;;;;;;8.02;46.99;98600.75;299395;203;63009;-55
2021/02/27 14:07:22;;;;;;;0.60;0.60;;;;;;;8.22;45.92;98589.59;299395;202;63004;-54
2021/02/27 14:12:23;;;;;;;0.60;0.60;;;;;;;8.19;46.79;98591.94;299395;221;63009;-53
2021/02/27 14:17:24;;;;;;;0.60;0.60;;;;;;;8.39;45.87;98577.00;299395;250;63005;-54
2021/02/27 14:22:25;;;;;;;0.60;0.60;;;;;;;8.29;46.22;98589.47;299395;249;63009;-54
2021/02/27 14:27:26;;;;;;;0.60;0.60;;;;;;;8.11;46.61;98586.88;299395;196;63005;-55
2021/02/27 14:32:29;;;;;;;0.60;0.60;;;;;;;8.07;47.53;98581.94;299395;322;63009;-53
2021/02/27 14:37:30;;;;;;;0.60;0.60;;;;;;;8.17;46.87;98591.34;299395;196;63004;-55
2021/02/27 14:42:31;;;;;;;0.60;0.60;;;;;;;8.17;47.09;98577.84;299395;269;63009;-54
2021/02/27 14:47:32;;;;;;;0.60;0.60;;;;;;;8.20;46.63;98580.06;299395;234;63005;-55
2021/02/27 14:52:34;;;;;;;0.60;0.60;;;;;;;8.18;46.87;98571.38;299395;219;63009;-54
2021/02/27 14:57:35;;;;;;;0.60;0.60;;;;;;;8.29;45.68;98562.44;299395;206;63005;-54
2021/02/27 15:02:36;;;;;;;0.60;0.60;;;;;;;8.23;46.16;98560.66;299395;242;63009;-55
2021/02/27 15:07:39;;;;;;;0.60;0.60;;;;;;;8.13;46.91;98573.94;299395;267;63004;-54
2021/02/27 15:12:41;;;;;;;0.60;0.60;;;;;;;8.11;46.59;98576.06;299395;207;63009;-54
2021/02/27 15:17:42;;;;;;;0.60;0.60;;;;;;;8.03;47.53;98574.53;299395;228;63005;-54
2021/02/27 15:22:44;;;;;;;0.60;0.60;;;;;;;8.19;46.26;98578.44;299395;330;63008;-54
2021/02/27 15:27:48;;;;;;;0.60;0.60;;;;;;;8.24;45.37;98565.84;299395;202;63004;-55
2021/02/27 15:32:49;;;;;;;0.60;0.60;;;;;;;8.27;45.55;98559.97;299395;229;63009;-54
2021/02/27 15:37:51;;;;;;;0.60;0.60;;;;;;;8.36;45.27;98563.13;299395;218;63004;-54
2021/02/27 15:42:52;;;;;;;0.60;0.60;;;;;;;8.29;45.85;98557.03;299395;244;63009;-56
2021/02/27 15:47:53;;;;;;;0.60;0.60;;;;;;;8.41;45.93;98555.13;299395;207;63005;-56
2021/02/27 15:52:59;;;;;;;0.60;0.60;;;;;;;8.38;46.77;98561.00;299395;219;63008;-54
2021/02/27 15:58:00;;;;;;;0.60;0.60;;;;;;;8.47;45.55;98561.47;299395;232;63004;-55
2021/02/27 16:03:01;;;;;;;0.60;0.60;;;;;;;8.42;46.32;98556.78;299395;221;63009;-54
2021/02/27 16:08:03;;;;;;;0.60;0.60;;;;;;;8.38;46.39;98561.00;299395;225;63004;-54
2021/02/27 16:13:05;;;;;;;0.60;0.60;;;;;;;8.18;47.51;98561.37;299395;238;63009;-55
2021/02/27 16:18:06;;;;;;;0.60;0.60;;;;;;;8.00;47.89;98565.00;299395;213;63005;-54
2021/02/27 16:23:07;;;;;;;0.60;0.60;;;;;;;7.62;49.37;98567.37;299395;208;63008;-55
2021/02/27 16:28:12;;;;;;;0.60;0.60;;;;;;;7.56;49.62;98574.53;299394;226;64004;-54
2021/02/27 16:33:13;;;;;;;0.60;0.60;;;;;;;7.39;50.52;98578.94;299395;211;63009;-53
2021/02/27 16:38:14;;;;;;;0.68;0.68;;;;;;;7.19;51.12;98584.63;299395;282;63005;-58
2021/02/27 16:43:15;;;;;;;0.60;0.60;;;;;;;7.04;51.43;98585.03;299395;196;63009;-54
2021/02/27 16:48:16;;;;;;;0.70;0.70;;;;;;;6.85;52.43;98588.03;299395;278;63005;-54
2021/02/27 16:53:17;;;;;;;0.60;0.60;;;;;;;6.76;52.01;98586.69;299395;240;63009;-54
2021/02/27 16:58:18;;;;;;;0.60;0.60;;;;;;;6.56;53.63;98595.84;299395;212;63004;-55
2021/02/27 17:03:22;;;;;;;0.60;0.60;;;;;;;6.48;53.52;98592.63;299395;296;63009;-54
2021/02/27 17:08:27;;;;;;;0.60;0.60;;;;;;;6.27;54.31;98601.97;299417;202;63005;-55
2021/02/27 17:13:28;;;;;;;0.60;0.60;;;;;;;6.25;54.06;98598.66;299417;203;63009;-54
2021/02/27 17:18:29;;;;;;;0.60;0.60;;;;;;;6.15;54.79;98609.16;299395;252;63005;-54
2021/02/27 17:23:30;;;;;;;0.70;0.70;;;;;;;6.01;55.47;98620.06;299395;261;63009;-54
2021/02/27 17:28:31;;;;;;;0.60;0.60;;;;;;;5.88;55.95;98630.94;299395;251;63004;-54
2021/02/27 17:33:32;;;;;;;0.68;0.68;;;;;;;5.86;55.89;98626.81;299395;199;63009;-54
2021/02/27 17:38:33;;;;;;;0.62;0.62;;;;;;;5.65;56.33;98636.91;299395;197;63005;-54
2021/02/27 17:43:34;;;;;;;0.60;0.60;;;;;;;5.63;56.36;98638.16;299395;342;63009;-54
2021/02/27 17:48:35;;;;;;;0.70;0.70;;;;;;;5.62;56.86;98641.91;299395;255;63005;-54
2021/02/27 17:53:37;;;;;;;0.60;0.60;;;;;;;5.51;56.69;98640.75;299395;243;63009;-54
2021/02/27 17:58:38;;;;;;;0.60;0.60;;;;;;;5.41;57.63;98639.56;299395;289;63004;-54
2021/02/27 18:03:40;;;;;;;0.70;0.70;;;;;;;5.36;57.86;98646.44;299395;218;63009;-54
2021/02/27 18:08:42;;;;;;;0.70;0.70;;;;;;;5.32;57.77;98642.50;299395;224;63005;-55
2021/02/27 18:13:43;;;;;;;0.60;0.60;;;;;;;5.31;57.24;98646.25;299395;222;63009;-54
2021/02/27 18:18:46;;;;;;;0.70;0.70;;;;;;;5.26;57.08;98643.38;299395;280;63005;-54
2021/02/27 18:23:48;;;;;;;0.70;0.70;;;;;;;5.24;57.34;98650.84;299395;362;63009;-54
2021/02/27 18:28:49;;;;;;;0.60;0.60;;;;;;;5.16;57.90;98643.03;299395;214;63004;-54
2021/02/27 18:33:51;;;;;;;0.70;0.70;;;;;;;5.07;57.75;98644.31;299395;238;63009;-55
2021/02/27 18:38:52;;;;;;;0.60;0.60;;;;;;;4.98;58.36;98646.44;299395;235;63005;-54
2021/02/27 18:43:53;;;;;;;0.60;0.60;;;;;;;4.92;58.51;98646.44;299395;231;63008;-55
2021/02/27 18:48:54;;;;;;;0.70;0.70;;;;;;;4.88;58.59;98642.53;299395;221;63004;-54
2021/02/27 18:53:55;;;;;;;0.70;0.70;;;;;;;4.91;57.54;98640.25;299395;218;63009;-54
2021/02/27 18:58:58;;;;;;;0.70;0.70;;;;;;;4.90;58.46;98643.16;299395;275;63004;-54
2021/02/27 19:03:59;;;;;;;0.70;0.70;;;;;;;4.82;58.46;98649.63;299395;219;63009;-54
2021/02/27 19:09:00;;;;;;;0.70;0.70;;;;;;;4.76;59.86;98652.31;299395;203;63005;-54
2021/02/27 19:14:03;;;;;;;0.70;0.70;;;;;;;4.66;60.21;98658.97;299395;333;63008;-54
2021/02/27 19:19:05;;;;;;;0.70;0.70;;;;;;;4.50;60.89;98648.69;299395;223;63004;-54
2021/02/27 19:24:07;;;;;;;0.70;0.70;;;;;;;4.32;61.44;98651.19;299395;227;63009;-54
2021/02/27 19:29:08;;;;;;;0.80;0.80;;;;;;;4.13;61.65;98654.75;299395;203;63005;-54
2021/02/27 19:34:09;;;;;;;0.70;0.70;;;;;;;4.01;62.69;98655.38;299395;220;63021;-54
2021/02/27 19:39:11;;;;;;;0.70;0.70;;;;;;;4.01;62.91;98649.19;299395;251;63005;-54
2021/02/27 19:44:13;;;;;;;0.70;0.70;;;;;;;3.98;62.73;98655.78;299395;214;63009;-54
2021/02/27 19:49:14;;;;;;;0.70;0.70;;;;;;;3.98;63.24;98650.44;299395;256;63004;-54
2021/02/27 19:54:15;;;;;;;0.70;0.70;;;;;;;3.89;62.98;98654.34;299395;232;63009;-55
2021/02/27 19:59:16;;;;;;;0.70;0.70;;;;;;;3.96;62.58;98655.19;299395;217;63005;-53
2021/02/27 20:04:18;;;;;;;0.70;0.70;;;;;;;3.96;62.24;98649.81;299395;224;63009;-54
2021/02/27 20:09:20;;;;;;;0.70;0.70;;;;;;;3.95;62.43;98648.16;299395;202;63005;-54
2021/02/27 20:14:21;;;;;;;0.80;0.80;;;;;;;3.87;62.82;98651.03;299394;257;64009;-54
2021/02/27 20:19:23;;;;;;;0.70;0.70;;;;;;;3.91;62.99;98649.59;299395;314;63006;-52
2021/02/27 20:24:24;;;;;;;0.70;0.70;;;;;;;3.88;62.96;98660.75;299395;222;63009;-58
2021/02/27 20:29:25;;;;;;;0.70;0.70;;;;;;;3.88;63.12;98657.25;299395;203;63005;-54
2021/02/27 20:34:31;;;;;;;0.70;0.70;;;;;;;3.88;63.41;98665.28;299395;242;63009;-54
2021/02/27 20:39:32;;;;;;;0.70;0.70;;;;;;;3.87;63.15;98652.91;299395;233;63005;-54
2021/02/27 20:44:34;;;;;;;0.70;0.70;;;;;;;3.89;62.98;98659.72;299395;205;63009;-54
2021/02/27 20:49:37;;;;;;;0.70;0.70;;;;;;;3.83;63.02;98657.84;299395;226;63004;-54
2021/02/27 20:54:39;;;;;;;0.80;0.80;;;;;;;3.88;63.18;98658.06;299395;198;63009;-52
2021/02/27 20:59:40;;;;;;;0.70;0.70;;;;;;;3.70;63.77;98657.88;299395;205;63005;-54
2021/02/27 21:04:42;;;;;;;0.70;0.70;;;;;;;3.76;63.76;98662.44;299395;227;63009;-54
2021/02/27 21:09:42;;;;;;;0.70;0.70;;;;;;;3.55;64.52;98665.28;299395;197;63008;-53
2021/02/27 21:14:44;;;;;;;0.80;0.80;;;;;;;3.50;64.54;98670.44;299395;211;63009;-54
2021/02/27 21:19:46;;;;;;;0.70;0.70;;;;;;;3.41;65.20;98671.66;299395;213;63004;-54
2021/02/27 21:24:47;;;;;;;0.70;0.70;;;;;;;3.42;65.40;98676.00;299395;253;63009;-53
2021/02/27 21:29:48;;;;;;;0.80;0.80;;;;;;;3.37;65.56;98669.41;299395;279;63005;-54
2021/02/27 21:34:49;;;;;;;0.80;0.80;;;;;;;3.30;65.96;98676.59;299395;211;63008;-53
2021/02/27 21:39:50;;;;;;;0.70;0.70;;;;;;;3.25;66.51;98676.38;299395;212;63004;-54
2021/02/27 21:44:51;;;;;;;0.70;0.70;;;;;;;3.23;66.14;98667.69;299395;197;63009;-53
2021/02/27 21:49:52;;;;;;;0.80;0.80;;;;;;;3.18;66.70;98672.00;299395;211;63004;-54
2021/02/27 21:54:56;;;;;;;0.80;0.80;;;;;;;3.01;67.50;98672.38;299395;204;63009;-54
2021/02/27 21:59:58;;;;;;;0.80;0.80;;;;;;;2.77;67.92;98666.75;299418;220;63005;-54
2021/02/27 22:05:00;;;;;;;0.70;0.70;;;;;;;2.71;68.79;98667.53;299396;235;63018;-54
2021/02/27 22:10:02;;;;;;;0.80;0.80;;;;;;;2.87;68.14;98661.81;299396;239;63004;-54
2021/02/27 22:15:05;;;;;;;0.80;0.80;;;;;;;2.68;69.13;98663.38;299396;198;63009;-54
2021/02/27 22:20:07;;;;;;;0.80;0.80;;;;;;;2.57;69.15;98655.91;299396;226;63004;-54
2021/02/27 22:25:10;;;;;;;0.80;0.80;;;;;;;2.62;68.83;98658.81;299396;208;63009;-53
2021/02/27 22:30:14;;;;;;;0.80;0.80;;;;;;;2.56;69.46;98649.72;299396;236;63009;-54
2021/02/27 22:35:16;;;;;;;0.80;0.80;;;;;;;2.56;69.40;98654.25;299396;365;63008;-53
2021/02/27 22:40:19;;;;;;;0.80;0.80;;;;;;;2.45;69.65;98646.75;299397;222;63004;-54
2021/02/27 22:45:20;;;;;;;0.80;0.80;;;;;;;2.42;69.91;98658.72;299397;270;63009;-53
2021/02/27 22:50:21;;;;;;;0.80;0.80;;;;;;;2.30;70.49;98657.63;299397;228;63005;-54
2021/02/27 22:55:22;;;;;;;0.80;0.80;;;;;;;2.27;71.12;98658.00;299396;205;63009;-53
2021/02/27 23:00:48;;;;;;;0.70;0.70;;;;;;;2.01;71.39;98664.84;299396;198;63005;-54
2021/02/27 23:05:50;;;;;;;0.70;0.70;;;;;;;1.87;72.05;98660.41;299396;226;63009;-52
2021/02/27 23:10:52;;;;;;;0.70;0.70;;;;;;;1.73;72.16;98663.19;299396;199;63004;-52
2021/02/27 23:15:54;;;;;;;0.70;0.70;;;;;;;1.61;72.64;98661.03;299396;236;63009;-54
2021/02/27 23:20:56;;;;;;;0.80;0.80;;;;;;;1.55;73.45;98664.47;299396;200;63005;-54
2021/02/27 23:25:57;;;;;;;0.70;0.70;;;;;;;1.65;73.79;98653.44;299396;219;63009;-53
2021/02/27 23:30:58;;;;;;;0.70;0.70;;;;;;;1.64;72.58;98660.66;299396;304;63005;-53
2021/02/27 23:36:06;;;;;;;0.70;0.70;;;;;;;1.63;73.17;98660.84;299397;212;63009;-54
2021/02/27 23:41:08;;;;;;;0.70;0.70;;;;;;;1.55;73.69;98669.00;299397;219;63004;-54
2021/02/27 23:46:10;;;;;;;0.80;0.80;;;;;;;1.40;74.03;98669.03;299395;268;63009;-55
2021/02/27 23:51:11;;;;;;;0.80;0.80;;;;;;;1.43;74.16;98663.31;299395;352;63005;-53
2021/02/27 23:56:12;;;;;;;0.80;0.80;;;;;;;1.52;73.64;98656.81;299395;220;63009;-54
